Terminal Aerodrome Forecast
Issued by NWS

Home | Current Version | Previous Version | Text Only | Print | Product List | Glossary On
Versions: 1 2 3 4 5 6 7 8 9 10 11 12 13 14 15 16 17
000
FTUS43 KGRB 232300
TAFMTW
TAF
KMTW 232325Z 2400/2424 04008KT P6SM SKC
     FM240600 VRB03KT P6SM SKC
      TEMPO 2408/2411 3SM BR
     FM241300 19003KT P6SM SKC=

USA.gov is the U.S. government's official web portal to all federal, state and local government web resources and services.